sensor_id;sensor_type;location;lat;lon;timestamp;pressure;altitude;pressure_sealevel;temperature;humidity
75815;BME280;64451;45.574;14.224;2022-12-29T00:00:21;97497.56;;;5.91;90.48
75815;BME280;64451;45.574;14.224;2022-12-29T00:02:21;97494.50;;;5.87;90.37
75815;BME280;64451;45.574;14.224;2022-12-29T00:04:22;97492.09;;;5.86;90.53
75815;BME280;64451;45.574;14.224;2022-12-29T00:06:22;97495.56;;;5.86;90.75
75815;BME280;64451;45.574;14.224;2022-12-29T00:08:23;97484.88;;;5.86;90.63
75815;BME280;64451;45.574;14.224;2022-12-29T00:10:39;97469.34;;;5.83;90.79
75815;BME280;64451;45.574;14.224;2022-12-29T00:12:39;97469.84;;;5.80;91.08
75815;BME280;64451;45.574;14.224;2022-12-29T00:14:58;97465.78;;;5.78;91.03
75815;BME280;64451;45.574;14.224;2022-12-29T00:17:17;97462.03;;;5.62;92.19
75815;BME280;64451;45.574;14.224;2022-12-29T00:19:17;97458.94;;;5.53;92.31
75815;BME280;64451;45.574;14.224;2022-12-29T00:21:36;97457.94;;;5.26;93.49
75815;BME280;64451;45.574;14.224;2022-12-29T00:23:55;97462.34;;;5.49;92.40
75815;BME280;64451;45.574;14.224;2022-12-29T00:26:27;97450.50;;;4.99;94.62
75815;BME280;64451;45.574;14.224;2022-12-29T00:28:46;97453.09;;;5.23;94.10
75815;BME280;64451;45.574;14.224;2022-12-29T00:31:09;97446.13;;;5.22;93.92
75815;BME280;64451;45.574;14.224;2022-12-29T00:33:31;97445.72;;;5.01;94.93
75815;BME280;64451;45.574;14.224;2022-12-29T00:35:57;97447.00;;;4.99;95.53
75815;BME280;64451;45.574;14.224;2022-12-29T00:38:03;97446.28;;;5.03;95.73
75815;BME280;64451;45.574;14.224;2022-12-29T00:40:23;97441.97;;;5.14;95.57
75815;BME280;64451;45.574;14.224;2022-12-29T00:42:42;97452.88;;;5.13;95.84
75815;BME280;64451;45.574;14.224;2022-12-29T00:45:01;97449.69;;;5.27;95.65
75815;BME280;64451;45.574;14.224;2022-12-29T00:47:01;97441.44;;;5.29;95.87
75815;BME280;64451;45.574;14.224;2022-12-29T00:49:03;97443.97;;;5.35;95.54
75815;BME280;64451;45.574;14.224;2022-12-29T00:51:22;97436.75;;;5.36;95.43
75815;BME280;64451;45.574;14.224;2022-12-29T00:53:23;97446.59;;;5.64;94.57
75815;BME280;64451;45.574;14.224;2022-12-29T00:55:24;97439.38;;;5.48;95.24
75815;BME280;64451;45.574;14.224;2022-12-29T00:57:24;97447.31;;;5.76;93.82
75815;BME280;64451;45.574;14.224;2022-12-29T00:59:24;97445.31;;;5.83;92.75
75815;BME280;64451;45.574;14.224;2022-12-29T01:01:25;97447.44;;;5.81;92.81
75815;BME280;64451;45.574;14.224;2022-12-29T01:03:25;97450.91;;;5.82;92.65
75815;BME280;64451;45.574;14.224;2022-12-29T01:05:25;97444.44;;;5.95;92.12
75815;BME280;64451;45.574;14.224;2022-12-29T01:07:26;97443.28;;;5.74;92.40
75815;BME280;64451;45.574;14.224;2022-12-29T01:09:26;97441.28;;;5.64;92.69
75815;BME280;64451;45.574;14.224;2022-12-29T01:11:45;97434.03;;;5.48;93.00
75815;BME280;64451;45.574;14.224;2022-12-29T01:13:45;97425.72;;;5.61;92.53
75815;BME280;64451;45.574;14.224;2022-12-29T01:15:50;97435.13;;;5.63;92.73
75815;BME280;64451;45.574;14.224;2022-12-29T01:17:51;97447.31;;;5.76;92.24
75815;BME280;64451;45.574;14.224;2022-12-29T01:19:51;97445.63;;;5.87;92.00
75815;BME280;64451;45.574;14.224;2022-12-29T01:21:52;97442.81;;;5.94;91.85
75815;BME280;64451;45.574;14.224;2022-12-29T01:23:52;97435.06;;;5.92;91.72
75815;BME280;64451;45.574;14.224;2022-12-29T01:25:52;97438.28;;;5.94;91.60
75815;BME280;64451;45.574;14.224;2022-12-29T01:27:53;97436.28;;;6.01;91.52
75815;BME280;64451;45.574;14.224;2022-12-29T01:29:53;97431.66;;;6.13;90.64
75815;BME280;64451;45.574;14.224;2022-12-29T01:31:53;97435.19;;;5.69;92.19
75815;BME280;64451;45.574;14.224;2022-12-29T01:33:54;97431.16;;;5.66;92.02
75815;BME280;64451;45.574;14.224;2022-12-29T01:35:54;97431.16;;;5.66;91.75
75815;BME280;64451;45.574;14.224;2022-12-29T01:37:54;97427.91;;;5.81;91.11
75815;BME280;64451;45.574;14.224;2022-12-29T01:39:55;97434.72;;;5.88;90.58
75815;BME280;64451;45.574;14.224;2022-12-29T01:41:55;97431.72;;;5.85;90.29
75815;BME280;64451;45.574;14.224;2022-12-29T01:43:58;97429.53;;;5.65;91.24
75815;BME280;64451;45.574;14.224;2022-12-29T01:46:01;97428.38;;;5.61;91.53
75815;BME280;64451;45.574;14.224;2022-12-29T01:48:03;97426.38;;;5.68;91.66
75815;BME280;64451;45.574;14.224;2022-12-29T01:52:18;97415.63;;;5.63;92.25
75815;BME280;64451;45.574;14.224;2022-12-29T01:56:35;97420.09;;;5.46;93.72
75815;BME280;64451;45.574;14.224;2022-12-29T01:58:39;97410.72;;;5.43;93.66
75815;BME280;64451;45.574;14.224;2022-12-29T02:00:41;97408.00;;;5.55;93.45
75815;BME280;64451;45.574;14.224;2022-12-29T02:02:45;97400.66;;;5.17;94.43
75815;BME280;64451;45.574;14.224;2022-12-29T02:04:46;97401.81;;;4.92;95.67
75815;BME280;64451;45.574;14.224;2022-12-29T02:06:51;97401.44;;;5.00;96.31
75815;BME280;64451;45.574;14.224;2022-12-29T02:08:55;97405.63;;;5.25;94.30
75815;BME280;64451;45.574;14.224;2022-12-29T02:10:56;97415.50;;;5.13;94.25
75815;BME280;64451;45.574;14.224;2022-12-29T02:12:58;97414.97;;;4.82;96.25
75815;BME280;64451;45.574;14.224;2022-12-29T02:15:00;97405.84;;;4.95;96.23
75815;BME280;64451;45.574;14.224;2022-12-29T02:19:33;97425.06;;;5.08;96.46
75815;BME280;64451;45.574;14.224;2022-12-29T02:21:51;97419.81;;;5.14;96.02
75815;BME280;64451;45.574;14.224;2022-12-29T02:40:22;97401.56;;;5.22;95.19
75815;BME280;64451;45.574;14.224;2022-12-29T02:42:40;97406.34;;;5.37;94.71
75815;BME280;64451;45.574;14.224;2022-12-29T02:51:33;97398.59;;;5.35;94.03
75815;BME280;64451;45.574;14.224;2022-12-29T02:53:36;97406.41;;;5.25;94.59
75815;BME280;64451;45.574;14.224;2022-12-29T02:55:55;97415.16;;;4.92;96.13
75815;BME280;64451;45.574;14.224;2022-12-29T02:58:22;97414.06;;;5.05;95.83
75815;BME280;64451;45.574;14.224;2022-12-29T03:00:23;97397.81;;;5.06;95.83
75815;BME280;64451;45.574;14.224;2022-12-29T03:09:33;97350.47;;;5.14;94.95
75815;BME280;64451;45.574;14.224;2022-12-29T03:11:48;97365.19;;;5.16;95.72
75815;BME280;64451;45.574;14.224;2022-12-29T03:14:16;97345.94;;;4.86;96.80
75815;BME280;64451;45.574;14.224;2022-12-29T03:16:49;97332.41;;;5.04;96.88
75815;BME280;64451;45.574;14.224;2022-12-29T03:21:10;97308.41;;;5.04;96.36
75815;BME280;64451;45.574;14.224;2022-12-29T03:23:13;97319.09;;;4.75;97.12
75815;BME280;64451;45.574;14.224;2022-12-29T03:26:14;97332.06;;;4.84;96.91
75815;BME280;64451;45.574;14.224;2022-12-29T03:27:53;97335.78;;;4.83;97.16
75815;BME280;64451;45.574;14.224;2022-12-29T03:29:58;97345.94;;;4.86;97.08
75815;BME280;64451;45.574;14.224;2022-12-29T03:32:01;97350.44;;;4.97;96.68
75815;BME280;64451;45.574;14.224;2022-12-29T03:34:05;97337.56;;;4.94;96.68
75815;BME280;64451;45.574;14.224;2022-12-29T03:36:10;97338.47;;;4.99;96.28
75815;BME280;64451;45.574;14.224;2022-12-29T03:38:18;97355.59;;;5.03;96.41
75815;BME280;64451;45.574;14.224;2022-12-29T03:40:20;97363.28;;;5.00;96.44
75815;BME280;64451;45.574;14.224;2022-12-29T03:42:24;97368.91;;;5.32;95.86
75815;BME280;64451;45.574;14.224;2022-12-29T03:44:38;97368.19;;;5.53;94.00
75815;BME280;64451;45.574;14.224;2022-12-29T03:46:39;97362.94;;;5.58;93.70
75815;BME280;64451;45.574;14.224;2022-12-29T03:48:39;97355.97;;;5.74;92.77
75815;BME280;64451;45.574;14.224;2022-12-29T03:50:40;97360.41;;;5.69;92.42
75815;BME280;64451;45.574;14.224;2022-12-29T03:52:40;97364.88;;;5.63;93.20
75815;BME280;64451;45.574;14.224;2022-12-29T03:54:40;97355.88;;;5.69;92.97
75815;BME280;64451;45.574;14.224;2022-12-29T03:56:41;97354.81;;;5.70;93.02
75815;BME280;64451;45.574;14.224;2022-12-29T03:58:41;97359.19;;;5.76;92.91
75815;BME280;64451;45.574;14.224;2022-12-29T04:00:42;97359.75;;;5.78;93.16
75815;BME280;64451;45.574;14.224;2022-12-29T04:02:42;97355.06;;;5.85;92.64
75815;BME280;64451;45.574;14.224;2022-12-29T04:04:42;97363.19;;;5.90;92.69
75815;BME280;64451;45.574;14.224;2022-12-29T04:06:42;97358.88;;;5.89;92.36
75815;BME280;64451;45.574;14.224;2022-12-29T04:08:43;97360.03;;;5.94;92.48
75815;BME280;64451;45.574;14.224;2022-12-29T04:10:43;97359.94;;;5.88;92.82
75815;BME280;64451;45.574;14.224;2022-12-29T04:12:44;97363.63;;;5.87;92.73
75815;BME280;64451;45.574;14.224;2022-12-29T04:14:46;97355.66;;;6.04;92.36
75815;BME280;64451;45.574;14.224;2022-12-29T04:16:46;97357.06;;;6.12;91.39
75815;BME280;64451;45.574;14.224;2022-12-29T04:18:47;97354.41;;;5.78;93.16
75815;BME280;64451;45.574;14.224;2022-12-29T04:20:47;97350.06;;;5.89;92.87
75815;BME280;64451;45.574;14.224;2022-12-29T04:23:03;97347.03;;;5.85;93.26
75815;BME280;64451;45.574;14.224;2022-12-29T04:25:05;97351.34;;;5.70;93.85
75815;BME280;64451;45.574;14.224;2022-12-29T04:27:05;97346.59;;;5.72;94.01
75815;BME280;64451;45.574;14.224;2022-12-29T04:29:05;97351.34;;;5.70;94.25
75815;BME280;64451;45.574;14.224;2022-12-29T04:31:06;97352.97;;;5.71;94.57
75815;BME280;64451;45.574;14.224;2022-12-29T04:33:06;97359.03;;;5.83;94.32
75815;BME280;64451;45.574;14.224;2022-12-29T04:35:07;97358.91;;;5.56;95.29
75815;BME280;64451;45.574;14.224;2022-12-29T04:37:07;97363.31;;;5.84;94.61
75815;BME280;64451;45.574;14.224;2022-12-29T04:39:08;97361.53;;;5.89;93.74
75815;BME280;64451;45.574;14.224;2022-12-29T04:41:08;97362.03;;;5.86;93.38
75815;BME280;64451;45.574;14.224;2022-12-29T04:43:09;97367.16;;;6.05;93.38
75815;BME280;64451;45.574;14.224;2022-12-29T04:45:10;97361.97;;;6.20;91.77
75815;BME280;64451;45.574;14.224;2022-12-29T04:47:10;97363.63;;;6.21;90.98
75815;BME280;64451;45.574;14.224;2022-12-29T04:49:11;97366.22;;;6.16;91.37
75815;BME280;64451;45.574;14.224;2022-12-29T04:51:11;97360.31;;;6.14;91.61
75815;BME280;64451;45.574;14.224;2022-12-29T04:53:12;97364.59;;;6.15;91.47
75815;BME280;64451;45.574;14.224;2022-12-29T04:55:12;97363.75;;;6.31;89.97
75815;BME280;64451;45.574;14.224;2022-12-29T04:57:13;97364.19;;;6.23;90.46
75815;BME280;64451;45.574;14.224;2022-12-29T04:59:13;97371.44;;;6.06;91.57
75815;BME280;64451;45.574;14.224;2022-12-29T05:01:13;97355.31;;;5.84;92.86
75815;BME280;64451;45.574;14.224;2022-12-29T05:03:14;97359.94;;;5.88;93.54
75815;BME280;64451;45.574;14.224;2022-12-29T05:05:14;97366.81;;;6.01;93.24
75815;BME280;64451;45.574;14.224;2022-12-29T05:07:15;97365.19;;;5.83;94.11
75815;BME280;64451;45.574;14.224;2022-12-29T05:09:15;97368.16;;;5.87;93.76
75815;BME280;64451;45.574;14.224;2022-12-29T05:11:15;97360.75;;;5.72;95.00
75815;BME280;64451;45.574;14.224;2022-12-29T05:13:16;97361.22;;;5.69;96.10
75815;BME280;64451;45.574;14.224;2022-12-29T05:15:17;97366.72;;;5.62;96.43
75815;BME280;64451;45.574;14.224;2022-12-29T05:17:17;97357.34;;;5.94;95.42
75815;BME280;64451;45.574;14.224;2022-12-29T05:19:18;97363.75;;;5.93;94.81
75815;BME280;64451;45.574;14.224;2022-12-29T05:21:18;97362.03;;;6.03;94.43
75815;BME280;64451;45.574;14.224;2022-12-29T05:23:18;97375.16;;;5.88;95.04
75815;BME280;64451;45.574;14.224;2022-12-29T05:25:18;97367.34;;;5.86;95.32
75815;BME280;64451;45.574;14.224;2022-12-29T05:27:19;97355.47;;;5.77;95.61
75815;BME280;64451;45.574;14.224;2022-12-29T05:29:19;97368.81;;;5.77;95.91
75815;BME280;64451;45.574;14.224;2022-12-29T05:31:20;97362.69;;;5.94;95.11
75815;BME280;64451;45.574;14.224;2022-12-29T05:33:20;97366.81;;;5.84;95.89
75815;BME280;64451;45.574;14.224;2022-12-29T05:35:20;97372.22;;;5.89;95.88
75815;BME280;64451;45.574;14.224;2022-12-29T05:37:21;97368.53;;;5.90;95.48
75815;BME280;64451;45.574;14.224;2022-12-29T05:39:21;97372.66;;;5.81;96.25
75815;BME280;64451;45.574;14.224;2022-12-29T05:41:21;97371.09;;;5.85;96.18
75815;BME280;64451;45.574;14.224;2022-12-29T05:43:22;97371.09;;;5.85;96.16
75815;BME280;64451;45.574;14.224;2022-12-29T05:45:22;97362.03;;;5.86;96.45
75815;BME280;64451;45.574;14.224;2022-12-29T05:47:22;97370.28;;;5.85;96.86
75815;BME280;64451;45.574;14.224;2022-12-29T05:49:23;97367.16;;;6.05;95.52
75815;BME280;64451;45.574;14.224;2022-12-29T05:51:23;97371.25;;;5.96;95.94
75815;BME280;64451;45.574;14.224;2022-12-29T05:53:24;97373.50;;;6.04;96.44
75815;BME280;64451;45.574;14.224;2022-12-29T05:55:24;97376.41;;;6.19;95.84
75815;BME280;64451;45.574;14.224;2022-12-29T05:57:24;97377.41;;;6.13;95.76
75815;BME280;64451;45.574;14.224;2022-12-29T05:59:25;97374.31;;;6.21;95.56
75815;BME280;64451;45.574;14.224;2022-12-29T06:01:25;97382.72;;;6.52;94.45
75815;BME280;64451;45.574;14.224;2022-12-29T06:03:25;97376.75;;;6.66;93.19
75815;BME280;64451;45.574;14.224;2022-12-29T06:05:26;97374.69;;;6.52;93.69
75815;BME280;64451;45.574;14.224;2022-12-29T06:07:27;97379.75;;;6.48;93.74
75815;BME280;64451;45.574;14.224;2022-12-29T06:09:27;97381.09;;;6.51;93.67
75815;BME280;64451;45.574;14.224;2022-12-29T06:11:28;97375.31;;;6.37;93.87
75815;BME280;64451;45.574;14.224;2022-12-29T06:13:28;97374.78;;;6.18;94.95
75815;BME280;64451;45.574;14.224;2022-12-29T06:15:28;97375.03;;;6.55;93.75
75815;BME280;64451;45.574;14.224;2022-12-29T06:17:29;97376.13;;;6.59;93.19
75815;BME280;64451;45.574;14.224;2022-12-29T06:19:29;97375.94;;;6.66;92.65
75815;BME280;64451;45.574;14.224;2022-12-29T06:21:30;97381.22;;;6.61;92.69
75815;BME280;64451;45.574;14.224;2022-12-29T06:23:31;97377.13;;;6.53;93.38
75815;BME280;64451;45.574;14.224;2022-12-29T06:25:31;97380.66;;;6.59;93.68
75815;BME280;64451;45.574;14.224;2022-12-29T06:27:33;97380.56;;;6.70;92.91
75815;BME280;64451;45.574;14.224;2022-12-29T06:29:33;97382.53;;;6.80;91.76
75815;BME280;64451;45.574;14.224;2022-12-29T06:31:36;97381.09;;;6.72;91.98
75815;BME280;64451;45.574;14.224;2022-12-29T06:33:37;97369.03;;;6.48;93.06
75815;BME280;64451;45.574;14.224;2022-12-29T06:35:38;97378.69;;;6.49;93.29
75815;BME280;64451;45.574;14.224;2022-12-29T06:37:38;97376.56;;;6.51;93.86
75815;BME280;64451;45.574;14.224;2022-12-29T06:39:39;97381.06;;;6.29;94.72
75815;BME280;64451;45.574;14.224;2022-12-29T06:41:39;97369.44;;;6.18;95.13
75815;BME280;64451;45.574;14.224;2022-12-29T06:43:39;97376.59;;;6.12;96.16
75815;BME280;64451;45.574;14.224;2022-12-29T06:45:40;97377.03;;;6.04;96.42
75815;BME280;64451;45.574;14.224;2022-12-29T06:47:40;97380.50;;;6.05;96.30
75815;BME280;64451;45.574;14.224;2022-12-29T06:49:41;97381.72;;;5.80;96.90
75815;BME280;64451;45.574;14.224;2022-12-29T06:51:41;97372.47;;;5.88;97.61
75815;BME280;64451;45.574;14.224;2022-12-29T06:53:42;97375.88;;;5.83;97.56
75815;BME280;64451;45.574;14.224;2022-12-29T06:55:42;97376.78;;;5.72;98.74
75815;BME280;64451;45.574;14.224;2022-12-29T06:57:43;97379.44;;;5.55;99.92
75815;BME280;64451;45.574;14.224;2022-12-29T06:59:43;97381.31;;;5.55;100.00
75815;BME280;64451;45.574;14.224;2022-12-29T07:01:43;97373.88;;;5.57;100.00
75815;BME280;64451;45.574;14.224;2022-12-29T07:03:43;97381.22;;;5.67;100.00
75815;BME280;64451;45.574;14.224;2022-12-29T07:05:44;97378.69;;;5.77;100.00
75815;BME280;64451;45.574;14.224;2022-12-29T07:07:44;97374.31;;;5.87;100.00
75815;BME280;64451;45.574;14.224;2022-12-29T07:09:45;97376.53;;;5.90;100.00
75815;BME280;64451;45.574;14.224;2022-12-29T07:11:45;97374.88;;;6.23;100.00
75815;BME280;64451;45.574;14.224;2022-12-29T07:13:46;97372.16;;;6.40;100.00
75815;BME280;64451;45.574;14.224;2022-12-29T07:15:46;97372.72;;;6.42;99.96
75815;BME280;64451;45.574;14.224;2022-12-29T07:17:46;97379.13;;;6.41;100.00
75815;BME280;64451;45.574;14.224;2022-12-29T07:19:47;97381.28;;;6.22;100.00
75815;BME280;64451;45.574;14.224;2022-12-29T07:21:47;97374.81;;;6.40;100.00
75815;BME280;64451;45.574;14.224;2022-12-29T07:23:48;97382.72;;;6.52;99.99
75815;BME280;64451;45.574;14.224;2022-12-29T07:25:48;97373.09;;;6.51;99.73
75815;BME280;64451;45.574;14.224;2022-12-29T07:27:49;97380.47;;;6.43;99.65
75815;BME280;64451;45.574;14.224;2022-12-29T07:29:49;97375.31;;;6.59;99.94
75815;BME280;64451;45.574;14.224;2022-12-29T07:31:50;97381.03;;;6.67;99.61
75815;BME280;64451;45.574;14.224;2022-12-29T07:33:50;97373.63;;;6.74;99.08
75815;BME280;64451;45.574;14.224;2022-12-29T07:35:50;97374.50;;;6.80;98.96
75815;BME280;64451;45.574;14.224;2022-12-29T07:37:51;97375.88;;;6.61;100.00
75815;BME280;64451;45.574;14.224;2022-12-29T07:39:51;97372.03;;;6.52;100.00
75815;BME280;64451;45.574;14.224;2022-12-29T07:41:51;97377.75;;;6.38;100.00
75815;BME280;64451;45.574;14.224;2022-12-29T07:43:52;97373.75;;;6.41;100.00
75815;BME280;64451;45.574;14.224;2022-12-29T07:45:52;97366.47;;;6.36;100.00
75815;BME280;64451;45.574;14.224;2022-12-29T07:47:53;97375.38;;;6.42;100.00
75815;BME280;64451;45.574;14.224;2022-12-29T07:49:53;97372.09;;;6.57;100.00
75815;BME280;64451;45.574;14.224;2022-12-29T07:51:53;97373.28;;;6.66;100.00
75815;BME280;64451;45.574;14.224;2022-12-29T07:53:54;97387.81;;;6.75;100.00
75815;BME280;64451;45.574;14.224;2022-12-29T07:55:55;97386.19;;;6.74;100.00
75815;BME280;64451;45.574;14.224;2022-12-29T07:57:56;97383.59;;;6.79;100.00
75815;BME280;64451;45.574;14.224;2022-12-29T07:59:56;97380.41;;;6.82;100.00
75815;BME280;64451;45.574;14.224;2022-12-29T08:01:57;97379.78;;;6.97;100.00
75815;BME280;64451;45.574;14.224;2022-12-29T08:03:57;97387.19;;;7.17;100.00
75815;BME280;64451;45.574;14.224;2022-12-29T08:05:57;97387.91;;;7.07;100.00
75815;BME280;64451;45.574;14.224;2022-12-29T08:07:58;97383.81;;;6.99;100.00
75815;BME280;64451;45.574;14.224;2022-12-29T08:09:58;97384.16;;;7.08;100.00
75815;BME280;64451;45.574;14.224;2022-12-29T08:11:59;97395.69;;;7.09;100.00
75815;BME280;64451;45.574;14.224;2022-12-29T08:13:59;97390.53;;;7.02;100.00
75815;BME280;64451;45.574;14.224;2022-12-29T08:15:59;97391.09;;;7.04;100.00
75815;BME280;64451;45.574;14.224;2022-12-29T08:18:00;97391.91;;;7.04;100.00
75815;BME280;64451;45.574;14.224;2022-12-29T08:20:01;97385.66;;;7.21;100.00
75815;BME280;64451;45.574;14.224;2022-12-29T08:22:01;97395.69;;;7.09;100.00
75815;BME280;64451;45.574;14.224;2022-12-29T08:24:02;97385.19;;;7.29;100.00
75815;BME280;64451;45.574;14.224;2022-12-29T08:26:04;97385.06;;;7.19;100.00
75815;BME280;64451;45.574;14.224;2022-12-29T08:28:05;97396.28;;;7.43;99.83
75815;BME280;64451;45.574;14.224;2022-12-29T08:30:06;97390.44;;;7.46;99.33
75815;BME280;64451;45.574;14.224;2022-12-29T08:32:06;97391.38;;;7.35;99.35
75815;BME280;64451;45.574;14.224;2022-12-29T08:34:07;97400.84;;;7.15;100.00
75815;BME280;64451;45.574;14.224;2022-12-29T08:36:08;97393.81;;;7.09;100.00
75815;BME280;64451;45.574;14.224;2022-12-29T08:38:08;97396.47;;;7.36;100.00
75815;BME280;64451;45.574;14.224;2022-12-29T08:40:11;97395.78;;;7.46;99.67
75815;BME280;64451;45.574;14.224;2022-12-29T08:42:11;97396.59;;;7.46;99.50
75815;BME280;64451;45.574;14.224;2022-12-29T08:44:11;97398.22;;;7.47;99.45
75815;BME280;64451;45.574;14.224;2022-12-29T08:46:12;97398.50;;;7.51;99.53
75815;BME280;64451;45.574;14.224;2022-12-29T08:48:12;97402.44;;;7.43;99.71
75815;BME280;64451;45.574;14.224;2022-12-29T08:50:13;97410.22;;;7.18;100.00
75815;BME280;64451;45.574;14.224;2022-12-29T08:52:13;97411.59;;;7.20;100.00
75815;BME280;64451;45.574;14.224;2022-12-29T08:54:14;97409.03;;;7.30;100.00
75815;BME280;64451;45.574;14.224;2022-12-29T08:56:14;97412.78;;;7.29;100.00
75815;BME280;64451;45.574;14.224;2022-12-29T08:58:15;97406.34;;;7.30;100.00
75815;BME280;64451;45.574;14.224;2022-12-29T09:00:16;97413.06;;;7.33;100.00
75815;BME280;64451;45.574;14.224;2022-12-29T09:02:17;97414.66;;;7.34;100.00
75815;BME280;64451;45.574;14.224;2022-12-29T09:04:17;97417.91;;;7.36;100.00
75815;BME280;64451;45.574;14.224;2022-12-29T09:06:17;97411.06;;;7.50;100.00
75815;BME280;64451;45.574;14.224;2022-12-29T09:08:18;97411.75;;;7.63;100.00
75815;BME280;64451;45.574;14.224;2022-12-29T09:10:18;97415.63;;;7.50;100.00
75815;BME280;64451;45.574;14.224;2022-12-29T09:12:19;97413.75;;;7.50;100.00
75815;BME280;64451;45.574;14.224;2022-12-29T09:14:19;97404.31;;;7.75;100.00
75815;BME280;64451;45.574;14.224;2022-12-29T09:16:22;97415.16;;;7.90;100.00
75815;BME280;64451;45.574;14.224;2022-12-29T09:18:23;97415.50;;;7.99;99.16
75815;BME280;64451;45.574;14.224;2022-12-29T09:20:23;97412.75;;;7.88;100.00
75815;BME280;64451;45.574;14.224;2022-12-29T09:22:24;97417.22;;;7.78;100.00
75815;BME280;64451;45.574;14.224;2022-12-29T09:24:24;97416.91;;;7.74;100.00
75815;BME280;64451;45.574;14.224;2022-12-29T09:26:24;97416.66;;;7.76;100.00
75815;BME280;64451;45.574;14.224;2022-12-29T09:28:25;97413.94;;;7.71;100.00
75815;BME280;64451;45.574;14.224;2022-12-29T09:30:26;97423.34;;;7.73;100.00
75815;BME280;64451;45.574;14.224;2022-12-29T09:32:26;97413.72;;;7.77;100.00
75815;BME280;64451;45.574;14.224;2022-12-29T09:34:27;97419.59;;;7.74;100.00
75815;BME280;64451;45.574;14.224;2022-12-29T09:36:27;97422.28;;;7.74;100.00
75815;BME280;64451;45.574;14.224;2022-12-29T09:38:28;97420.41;;;7.75;100.00
75815;BME280;64451;45.574;14.224;2022-12-29T09:40:32;97418.03;;;7.78;100.00
75815;BME280;64451;45.574;14.224;2022-12-29T09:45:16;97424.97;;;8.11;99.72
75815;BME280;64451;45.574;14.224;2022-12-29T09:47:18;97419.91;;;8.15;98.81
75815;BME280;64451;45.574;14.224;2022-12-29T09:51:23;97411.84;;;8.15;99.74
75815;BME280;64451;45.574;14.224;2022-12-29T09:53:33;97400.44;;;8.30;98.78
75815;BME280;64451;45.574;14.224;2022-12-29T09:55:39;97406.41;;;8.37;98.47
75815;BME280;64451;45.574;14.224;2022-12-29T09:57:55;97398.38;;;8.37;98.33
75815;BME280;64451;45.574;14.224;2022-12-29T10:00:02;97407.75;;;8.39;99.08
75815;BME280;64451;45.574;14.224;2022-12-29T10:02:28;97411.50;;;8.38;99.48
75815;BME280;64451;45.574;14.224;2022-12-29T10:04:31;97408.03;;;8.38;99.36
75815;BME280;64451;45.574;14.224;2022-12-29T10:06:54;97410.38;;;8.34;99.93
75815;BME280;64451;45.574;14.224;2022-12-29T10:11:45;97403.34;;;8.70;97.58
75815;BME280;64451;45.574;14.224;2022-12-29T10:16:17;97396.91;;;8.77;96.53
75815;BME280;64451;45.574;14.224;2022-12-29T10:25:32;97390.50;;;8.83;98.05
75815;BME280;64451;45.574;14.224;2022-12-29T10:27:34;97387.59;;;8.94;96.04
75815;BME280;64451;45.574;14.224;2022-12-29T10:29:40;97382.47;;;8.93;96.23
75815;BME280;64451;45.574;14.224;2022-12-29T10:31:47;97376.59;;;8.96;95.92
75815;BME280;64451;45.574;14.224;2022-12-29T10:33:57;97379.81;;;8.98;95.40
75815;BME280;64451;45.574;14.224;2022-12-29T10:36:09;97383.00;;;8.80;96.76
75815;BME280;64451;45.574;14.224;2022-12-29T10:40:24;97385.19;;;8.98;95.54
75815;BME280;64451;45.574;14.224;2022-12-29T10:42:38;97379.03;;;8.97;95.39
75815;BME280;64451;45.574;14.224;2022-12-29T10:44:41;97380.09;;;8.96;95.31
75815;BME280;64451;45.574;14.224;2022-12-29T10:46:42;97372.56;;;8.98;95.32
75815;BME280;64451;45.574;14.224;2022-12-29T10:48:44;97373.91;;;8.96;95.35
75815;BME280;64451;45.574;14.224;2022-12-29T10:50:47;97377.69;;;9.00;95.21
75815;BME280;64451;45.574;14.224;2022-12-29T10:52:48;97368.28;;;8.97;95.55
75815;BME280;64451;45.574;14.224;2022-12-29T10:54:54;97374.47;;;9.03;95.86
75815;BME280;64451;45.574;14.224;2022-12-29T10:57:01;97376.09;;;9.04;96.09
75815;BME280;64451;45.574;14.224;2022-12-29T10:59:16;97379.88;;;9.13;96.27
75815;BME280;64451;45.574;14.224;2022-12-29T11:01:19;97383.66;;;9.27;95.58
75815;BME280;64451;45.574;14.224;2022-12-29T11:03:48;97372.63;;;9.24;95.51
75815;BME280;64451;45.574;14.224;2022-12-29T11:06:09;97372.34;;;9.25;95.48
75815;BME280;64451;45.574;14.224;2022-12-29T11:08:18;97374.25;;;9.25;95.24
75815;BME280;64451;45.574;14.224;2022-12-29T11:10:41;97374.22;;;9.10;97.36
75815;BME280;64451;45.574;14.224;2022-12-29T11:12:58;97372.66;;;9.29;96.23
75815;BME280;64451;45.574;14.224;2022-12-29T11:17:14;97357.63;;;9.38;95.10
75815;BME280;64451;45.574;14.224;2022-12-29T11:19:23;97361.09;;;9.34;95.26
75815;BME280;64451;45.574;14.224;2022-12-29T11:21:32;97366.75;;;9.37;95.77
75815;BME280;64451;45.574;14.224;2022-12-29T11:23:34;97353.59;;;9.36;95.86
75815;BME280;64451;45.574;14.224;2022-12-29T11:25:35;97357.63;;;9.38;95.23
75815;BME280;64451;45.574;14.224;2022-12-29T11:27:35;97358.44;;;9.44;95.19
75815;BME280;64451;45.574;14.224;2022-12-29T11:29:40;97354.38;;;9.41;93.98
75815;BME280;64451;45.574;14.224;2022-12-29T11:31:46;97346.06;;;9.43;94.17
75815;BME280;64451;45.574;14.224;2022-12-29T11:33:47;97344.19;;;9.48;93.80
75815;BME280;64451;45.574;14.224;2022-12-29T11:35:47;97340.97;;;9.56;93.45
75815;BME280;64451;45.574;14.224;2022-12-29T11:37:56;97337.22;;;9.52;93.50
75815;BME280;64451;45.574;14.224;2022-12-29T11:42:00;97336.13;;;9.53;93.38
75815;BME280;64451;45.574;14.224;2022-12-29T11:44:05;97336.94;;;9.39;94.15
75815;BME280;64451;45.574;14.224;2022-12-29T11:46:06;97339.34;;;9.45;93.78
75815;BME280;64451;45.574;14.224;2022-12-29T11:48:29;97339.88;;;9.42;94.51
75815;BME280;64451;45.574;14.224;2022-12-29T11:50:33;97329.41;;;9.46;94.48
75815;BME280;64451;45.574;14.224;2022-12-29T11:52:36;97330.47;;;9.50;93.93
75815;BME280;64451;45.574;14.224;2022-12-29T11:54:47;97333.19;;;9.60;93.39